Time;durP1;ratioP1;P1;durP2;ratioP2;P2;SDS_P1;SDS_P2;PMS_P1;PMS_P2;Temp;Humidity;BMP_temperature;BMP_pressure;BME280_temperature;BME280_humidity;BME280_pressure;Samples;Min_cycle;Max_cycle;Signal;HPM_P1;HPM_P2
2023/12/02 00:01:00;;;;;;;3.10;2.90;;;;;;;;;;5058783;28;20287;-71
2023/12/02 00:03:28;;;;;;;3.13;2.90;;;;;;;;;;5061267;28;20210;-73
2023/12/02 00:05:56;;;;;;;2.87;2.67;;;;;;;;;;5060174;28;20202;-71
2023/12/02 00:08:26;;;;;;;2.87;2.67;;;;;;;;;;5044366;28;20607;-70
2023/12/02 00:10:54;;;;;;;3.27;2.97;;;;;;;;;;5040670;28;20223;-71
2023/12/02 00:13:21;;;;;;;2.60;2.40;;;;;;;;;;5061524;28;20214;-70
2023/12/02 00:15:49;;;;;;;2.50;2.30;;;;;;;;;;5067320;28;20255;-71
2023/12/02 00:18:16;;;;;;;2.90;2.40;;;;;;;;;;5063899;28;20228;-72
2023/12/02 00:20:44;;;;;;;2.67;2.47;;;;;;;;;;5062041;28;20301;-71
2023/12/02 00:23:13;;;;;;;2.70;2.50;;;;;;;;;;5059138;28;20570;-71
2023/12/02 00:25:41;;;;;;;2.70;2.50;;;;;;;;;;5070296;28;20202;-72
2023/12/02 00:28:08;;;;;;;2.37;2.20;;;;;;;;;;5065188;28;20565;-72
2023/12/02 00:30:35;;;;;;;2.90;2.67;;;;;;;;;;5047846;28;20209;-73
2023/12/02 00:33:03;;;;;;;3.10;2.90;;;;;;;;;;5055685;28;20235;-72
2023/12/02 00:35:31;;;;;;;2.47;2.37;;;;;;;;;;5055759;28;20210;-73
2023/12/02 00:37:58;;;;;;;2.50;2.33;;;;;;;;;;5054708;28;20846;-72
2023/12/02 00:40:25;;;;;;;2.93;2.70;;;;;;;;;;5062523;28;20803;-72
2023/12/02 00:42:53;;;;;;;2.80;2.60;;;;;;;;;;5054955;28;20256;-72
2023/12/02 00:45:20;;;;;;;2.97;2.60;;;;;;;;;;5064703;28;20308;-70
2023/12/02 00:47:47;;;;;;;2.90;2.70;;;;;;;;;;5072017;28;20299;-71
2023/12/02 00:50:18;;;;;;;2.83;2.63;;;;;;;;;;5054187;28;20236;-70
2023/12/02 00:52:47;;;;;;;2.87;2.67;;;;;;;;;;5071977;28;20221;-71
2023/12/02 00:55:17;;;;;;;2.70;2.50;;;;;;;;;;5072180;28;20277;-72
2023/12/02 00:57:44;;;;;;;2.83;2.63;;;;;;;;;;5073499;28;20212;-73
2023/12/02 01:00:12;;;;;;;2.67;2.50;;;;;;;;;;5075882;28;20202;-70
2023/12/02 01:02:39;;;;;;;2.80;2.60;;;;;;;;;;5060291;28;20210;-71
2023/12/02 01:05:09;;;;;;;2.73;2.53;;;;;;;;;;5053167;28;20666;-70
2023/12/02 01:07:40;;;;;;;2.90;2.70;;;;;;;;;;5063831;28;20221;-71
2023/12/02 01:10:07;;;;;;;3.00;2.80;;;;;;;;;;5064756;28;20205;-72
2023/12/02 01:12:34;;;;;;;2.70;2.50;;;;;;;;;;5053330;28;20286;-72
2023/12/02 01:15:02;;;;;;;3.00;2.80;;;;;;;;;;5060038;28;20194;-71
2023/12/02 01:17:29;;;;;;;3.17;2.97;;;;;;;;;;5068491;28;20220;-72
2023/12/02 01:19:56;;;;;;;3.00;2.80;;;;;;;;;;5063924;28;20233;-71
2023/12/02 01:22:23;;;;;;;3.30;3.10;;;;;;;;;;5064287;28;20208;-72
2023/12/02 01:24:51;;;;;;;2.73;2.53;;;;;;;;;;5043570;28;20294;-71
2023/12/02 01:27:18;;;;;;;3.10;2.90;;;;;;;;;;5059419;28;20251;-71
2023/12/02 01:29:45;;;;;;;3.30;3.10;;;;;;;;;;5057706;28;20198;-71
2023/12/02 01:32:17;;;;;;;3.37;3.10;;;;;;;;;;5066220;28;20309;-70
2023/12/02 01:34:44;;;;;;;3.70;3.40;;;;;;;;;;5055438;28;20227;-71
2023/12/02 01:37:11;;;;;;;3.67;3.37;;;;;;;;;;5053642;28;20309;-71
2023/12/02 01:39:38;;;;;;;3.50;3.20;;;;;;;;;;5062625;28;20201;-72
2023/12/02 01:42:06;;;;;;;3.77;3.47;;;;;;;;;;5057438;28;20210;-72
2023/12/02 01:44:36;;;;;;;3.53;3.23;;;;;;;;;;5055865;28;21153;-72
2023/12/02 01:47:04;;;;;;;4.00;3.70;;;;;;;;;;5059632;28;20222;-71
2023/12/02 01:49:32;;;;;;;4.43;4.07;;;;;;;;;;5062162;28;20244;-70
2023/12/02 01:51:59;;;;;;;3.90;3.60;;;;;;;;;;5065442;28;20301;-72
2023/12/02 01:54:27;;;;;;;3.90;3.60;;;;;;;;;;5055518;28;20267;-72
2023/12/02 01:56:55;;;;;;;5.33;4.50;;;;;;;;;;5054205;28;20224;-70
2023/12/02 01:59:22;;;;;;;5.77;5.10;;;;;;;;;;5053992;28;20295;-69
2023/12/02 02:01:50;;;;;;;7.17;5.37;;;;;;;;;;5053919;28;20582;-71
2023/12/02 02:04:17;;;;;;;6.07;5.47;;;;;;;;;;5033066;28;20206;-72
2023/12/02 02:06:45;;;;;;;6.73;6.03;;;;;;;;;;5055157;28;20199;-72
2023/12/02 02:09:13;;;;;;;7.13;6.30;;;;;;;;;;5060818;28;20209;-72
2023/12/02 02:11:43;;;;;;;7.57;6.47;;;;;;;;;;5054086;28;20324;-72
2023/12/02 02:14:11;;;;;;;7.27;6.43;;;;;;;;;;5059604;28;20229;-72
2023/12/02 02:16:39;;;;;;;7.47;6.43;;;;;;;;;;5055815;28;20355;-71
2023/12/02 02:19:08;;;;;;;7.93;6.30;;;;;;;;;;5060232;28;20275;-70
2023/12/02 02:21:35;;;;;;;8.37;6.90;;;;;;;;;;5063996;28;20304;-72
2023/12/02 02:24:03;;;;;;;9.60;7.20;;;;;;;;;;5052730;28;20241;-72
2023/12/02 02:26:30;;;;;;;8.10;6.53;;;;;;;;;;5043721;28;20232;-72
2023/12/02 02:28:57;;;;;;;8.50;6.97;;;;;;;;;;5066108;28;20624;-70
2023/12/02 02:31:24;;;;;;;9.23;7.00;;;;;;;;;;5060425;28;20210;-70
2023/12/02 02:33:52;;;;;;;8.33;6.80;;;;;;;;;;5058929;28;20627;-72
2023/12/02 02:36:20;;;;;;;8.87;7.07;;;;;;;;;;5044399;28;20209;-71
2023/12/02 02:38:47;;;;;;;8.23;6.83;;;;;;;;;;5054170;28;20221;-71
2023/12/02 02:41:17;;;;;;;7.70;6.83;;;;;;;;;;5061345;28;20202;-72
2023/12/02 02:43:44;;;;;;;7.03;6.33;;;;;;;;;;5058140;28;20210;-70
2023/12/02 02:46:13;;;;;;;7.30;6.20;;;;;;;;;;5048644;28;20214;-72
2023/12/02 02:48:40;;;;;;;7.40;6.07;;;;;;;;;;5061671;28;20223;-72
2023/12/02 02:51:08;;;;;;;8.70;7.50;;;;;;;;;;5053089;28;20226;-72
2023/12/02 02:53:35;;;;;;;6.57;5.80;;;;;;;;;;5062021;28;20225;-72
2023/12/02 02:56:03;;;;;;;7.23;5.97;;;;;;;;;;5057314;28;20232;-71
2023/12/02 02:58:30;;;;;;;6.23;5.60;;;;;;;;;;5057089;28;20259;-71
2023/12/02 03:00:58;;;;;;;7.17;6.10;;;;;;;;;;5048741;28;20206;-72
2023/12/02 03:03:26;;;;;;;7.20;5.80;;;;;;;;;;5058649;28;20217;-72
2023/12/02 03:05:53;;;;;;;6.37;5.73;;;;;;;;;;5059378;28;20301;-73
2023/12/02 03:08:20;;;;;;;6.70;6.00;;;;;;;;;;5052491;28;20226;-71
2023/12/02 03:10:48;;;;;;;6.50;5.57;;;;;;;;;;5053077;28;20225;-72
2023/12/02 03:13:15;;;;;;;7.00;6.30;;;;;;;;;;5057751;28;20231;-72
2023/12/02 03:15:42;;;;;;;8.47;6.30;;;;;;;;;;5058580;28;20255;-72
2023/12/02 03:18:10;;;;;;;6.87;6.13;;;;;;;;;;5060647;28;20345;-71
2023/12/02 03:20:37;;;;;;;6.93;6.00;;;;;;;;;;5051078;28;20728;-72
2023/12/02 03:23:05;;;;;;;7.03;6.33;;;;;;;;;;5053483;28;20201;-72
2023/12/02 03:25:32;;;;;;;7.97;6.63;;;;;;;;;;5060102;28;20218;-72
2023/12/02 03:27:59;;;;;;;7.63;6.80;;;;;;;;;;5053480;28;20237;-72
2023/12/02 03:30:27;;;;;;;8.03;7.03;;;;;;;;;;5057478;28;20297;-72
2023/12/02 03:32:55;;;;;;;9.27;7.37;;;;;;;;;;5039195;28;20309;-71
2023/12/02 03:35:23;;;;;;;8.30;6.63;;;;;;;;;;5059455;28;20265;-71
2023/12/02 03:37:50;;;;;;;7.73;6.43;;;;;;;;;;5061888;28;20222;-72
2023/12/02 03:40:22;;;;;;;7.70;6.47;;;;;;;;;;5061184;28;20315;-71
2023/12/02 03:42:50;;;;;;;8.80;6.73;;;;;;;;;;5059250;28;20254;-71
2023/12/02 03:45:17;;;;;;;8.27;6.70;;;;;;;;;;5061413;28;20212;-71
2023/12/02 03:47:45;;;;;;;7.20;6.50;;;;;;;;;;5063502;28;20221;-72
2023/12/02 03:50:12;;;;;;;9.83;7.33;;;;;;;;;;5062004;28;20744;-72
2023/12/02 03:52:42;;;;;;;8.47;6.50;;;;;;;;;;5050398;28;20228;-72
2023/12/02 03:55:10;;;;;;;7.47;6.77;;;;;;;;;;5066283;28;20212;-73
2023/12/02 03:57:37;;;;;;;7.23;6.40;;;;;;;;;;5042381;28;20229;-72
2023/12/02 04:00:13;;;;;;;8.33;6.70;;;;;;;;;;5044699;28;20204;-71
2023/12/02 04:02:41;;;;;;;9.80;7.43;;;;;;;;;;5065804;28;20300;-72
2023/12/02 04:05:10;;;;;;;8.80;7.00;;;;;;;;;;5058884;28;20225;-72
2023/12/02 04:07:38;;;;;;;8.93;7.23;;;;;;;;;;5061282;28;20229;-72
2023/12/02 04:10:06;;;;;;;7.67;6.30;;;;;;;;;;5045921;28;20206;-71
2023/12/02 04:12:34;;;;;;;7.73;6.93;;;;;;;;;;5056743;28;20221;-72
2023/12/02 04:15:01;;;;;;;9.27;7.23;;;;;;;;;;5039268;28;20205;-73
2023/12/02 04:17:31;;;;;;;10.37;7.83;;;;;;;;;;5028377;28;20640;-71
2023/12/02 04:19:58;;;;;;;8.60;7.13;;;;;;;;;;5062932;28;20296;-73
2023/12/02 04:22:25;;;;;;;10.43;7.70;;;;;;;;;;5052070;28;20207;-72
2023/12/02 04:24:53;;;;;;;8.83;7.43;;;;;;;;;;5043891;28;20625;-71
2023/12/02 04:27:21;;;;;;;10.37;8.00;;;;;;;;;;5057666;28;20617;-73
2023/12/02 04:29:48;;;;;;;11.37;9.03;;;;;;;;;;5055651;28;20204;-71
2023/12/02 04:32:15;;;;;;;10.77;8.13;;;;;;;;;;5062864;28;20225;-72
2023/12/02 04:34:43;;;;;;;13.20;9.70;;;;;;;;;;5045871;28;20212;-71
2023/12/02 04:37:12;;;;;;;14.47;9.30;;;;;;;;;;5055555;28;20236;-72
2023/12/02 04:39:40;;;;;;;14.37;9.63;;;;;;;;;;5055454;28;20205;-72
2023/12/02 04:42:07;;;;;;;13.53;9.80;;;;;;;;;;5059512;28;20289;-72
2023/12/02 04:44:34;;;;;;;12.60;9.50;;;;;;;;;;5057119;28;20206;-71
2023/12/02 04:47:09;;;;;;;14.47;9.57;;;;;;;;;;5056801;28;20304;-72
2023/12/02 04:49:36;;;;;;;14.67;10.00;;;;;;;;;;5038467;28;20669;-72
2023/12/02 04:52:04;;;;;;;14.00;9.93;;;;;;;;;;5064635;28;20251;-71
2023/12/02 04:54:34;;;;;;;13.23;8.77;;;;;;;;;;5066121;28;20210;-72
2023/12/02 04:57:01;;;;;;;14.37;9.70;;;;;;;;;;5058583;28;20269;-72
2023/12/02 04:59:28;;;;;;;10.37;8.17;;;;;;;;;;5060539;28;20298;-71
2023/12/02 05:01:56;;;;;;;11.70;8.40;;;;;;;;;;5058064;28;20880;-72
2023/12/02 05:04:24;;;;;;;10.90;8.37;;;;;;;;;;5032968;28;20205;-70
2023/12/02 05:06:52;;;;;;;13.07;8.83;;;;;;;;;;5057188;28;20225;-72
2023/12/02 05:09:21;;;;;;;12.87;8.63;;;;;;;;;;5055675;28;20711;-70
2023/12/02 05:11:48;;;;;;;10.87;8.53;;;;;;;;;;5058749;28;20239;-72
2023/12/02 05:14:16;;;;;;;10.70;7.67;;;;;;;;;;5062470;28;20288;-72
2023/12/02 05:16:44;;;;;;;11.40;8.40;;;;;;;;;;5054954;28;20205;-71
2023/12/02 05:19:11;;;;;;;11.67;8.23;;;;;;;;;;5059484;28;20578;-71
2023/12/02 05:21:39;;;;;;;11.37;7.93;;;;;;;;;;5056509;28;20202;-72
2023/12/02 05:24:08;;;;;;;11.10;7.03;;;;;;;;;;5062124;28;20292;-72
2023/12/02 05:26:35;;;;;;;8.27;6.30;;;;;;;;;;5051550;28;20293;-72
2023/12/02 05:29:05;;;;;;;8.30;6.50;;;;;;;;;;5054285;28;20285;-72
2023/12/02 05:31:32;;;;;;;7.13;5.73;;;;;;;;;;5052853;28;20220;-72
2023/12/02 05:34:00;;;;;;;9.00;6.40;;;;;;;;;;5064143;28;20240;-70
2023/12/02 05:36:27;;;;;;;8.13;6.70;;;;;;;;;;5071107;28;20204;-71
2023/12/02 05:38:54;;;;;;;9.50;7.03;;;;;;;;;;5071190;28;20221;-70
2023/12/02 05:41:22;;;;;;;8.37;6.47;;;;;;;;;;5071041;28;20208;-69
2023/12/02 05:43:49;;;;;;;7.43;5.97;;;;;;;;;;5063443;28;20212;-69
2023/12/02 05:46:17;;;;;;;8.07;6.17;;;;;;;;;;5050365;28;20220;-71
2023/12/02 05:48:44;;;;;;;8.47;6.37;;;;;;;;;;5068158;28;20226;-71
2023/12/02 05:51:12;;;;;;;8.87;6.73;;;;;;;;;;5053563;28;20665;-72
2023/12/02 05:53:40;;;;;;;9.07;8.17;;;;;;;;;;5071281;28;20265;-68
2023/12/02 05:56:08;;;;;;;8.37;6.40;;;;;;;;;;5089717;28;20208;-71
2023/12/02 05:58:36;;;;;;;8.63;7.40;;;;;;;;;;5090921;28;20216;-71
2023/12/02 06:01:03;;;;;;;7.70;6.27;;;;;;;;;;5091275;28;20215;-70
2023/12/02 06:03:33;;;;;;;7.57;5.83;;;;;;;;;;5083276;28;20247;-71
2023/12/02 06:06:00;;;;;;;9.83;6.70;;;;;;;;;;5049648;28;20213;-71
2023/12/02 06:08:28;;;;;;;8.73;6.20;;;;;;;;;;5056129;28;20324;-71
2023/12/02 06:10:55;;;;;;;7.57;5.90;;;;;;;;;;5060109;28;20216;-71
2023/12/02 06:13:22;;;;;;;6.90;5.30;;;;;;;;;;5052352;28;20231;-70
2023/12/02 06:15:49;;;;;;;6.63;5.47;;;;;;;;;;5056276;28;20237;-70
2023/12/02 06:18:17;;;;;;;6.67;5.60;;;;;;;;;;5061911;28;20268;-72
2023/12/02 06:20:44;;;;;;;7.10;5.37;;;;;;;;;;5061848;28;20205;-73
2023/12/02 06:23:11;;;;;;;5.97;5.37;;;;;;;;;;5052026;28;20263;-73
2023/12/02 06:25:39;;;;;;;5.93;4.80;;;;;;;;;;5034989;28;20628;-72
2023/12/02 06:28:06;;;;;;;5.60;5.07;;;;;;;;;;5063140;28;20696;-69
2023/12/02 06:30:34;;;;;;;5.90;4.97;;;;;;;;;;5053725;28;20724;-71
2023/12/02 06:33:01;;;;;;;6.27;5.23;;;;;;;;;;5057275;28;20588;-73
2023/12/02 06:35:29;;;;;;;7.00;4.97;;;;;;;;;;5044615;28;20712;-71
2023/12/02 06:37:56;;;;;;;6.33;5.70;;;;;;;;;;5043604;28;20220;-71
2023/12/02 06:40:23;;;;;;;14.10;6.97;;;;;;;;;;5057650;28;20208;-72
2023/12/02 06:42:51;;;;;;;7.47;6.03;;;;;;;;;;5059008;28;20322;-73
2023/12/02 06:45:18;;;;;;;10.23;6.33;;;;;;;;;;5056627;28;20263;-72
2023/12/02 06:47:45;;;;;;;18.97;7.23;;;;;;;;;;5041438;28;20224;-72
2023/12/02 06:50:13;;;;;;;9.13;5.30;;;;;;;;;;5056099;28;20211;-71
2023/12/02 06:52:40;;;;;;;9.57;6.57;;;;;;;;;;5045494;28;20208;-71
2023/12/02 06:55:09;;;;;;;12.77;7.10;;;;;;;;;;5059445;28;22446;-72
2023/12/02 06:57:40;;;;;;;9.90;7.57;;;;;;;;;;5060950;28;20236;-72
2023/12/02 07:00:10;;;;;;;14.60;8.03;;;;;;;;;;5036937;28;20204;-72
2023/12/02 07:02:40;;;;;;;11.90;7.67;;;;;;;;;;5061275;28;20291;-74
2023/12/02 07:05:08;;;;;;;12.23;7.83;;;;;;;;;;5058796;28;20212;-72
2023/12/02 07:07:38;;;;;;;35.80;8.67;;;;;;;;;;5065259;28;20216;-72
2023/12/02 07:10:07;;;;;;;20.87;8.30;;;;;;;;;;5045475;28;20200;-73
2023/12/02 07:12:34;;;;;;;95.40;11.03;;;;;;;;;;5054437;28;20665;-72
2023/12/02 07:15:01;;;;;;;296.47;18.83;;;;;;;;;;5072027;28;20202;-72
2023/12/02 07:17:29;;;;;;;337.37;16.87;;;;;;;;;;5055399;28;20774;-72
2023/12/02 07:19:56;;;;;;;212.57;15.97;;;;;;;;;;5049482;28;20207;-70
2023/12/02 07:22:23;;;;;;;205.73;14.07;;;;;;;;;;5062082;28;20409;-74
2023/12/02 07:24:50;;;;;;;213.63;15.70;;;;;;;;;;5054997;28;20612;-72
2023/12/02 07:27:18;;;;;;;203.47;14.67;;;;;;;;;;5049391;28;20700;-74
2023/12/02 07:29:45;;;;;;;223.10;14.27;;;;;;;;;;5053848;28;20206;-71
2023/12/02 07:32:15;;;;;;;153.33;13.60;;;;;;;;;;5046548;28;20207;-71
2023/12/02 07:34:42;;;;;;;152.73;13.30;;;;;;;;;;5052068;28;20282;-72
2023/12/02 07:37:10;;;;;;;222.47;14.37;;;;;;;;;;5053585;28;20696;-73
2023/12/02 07:39:37;;;;;;;133.97;13.33;;;;;;;;;;5060878;28;20207;-73
2023/12/02 07:42:04;;;;;;;44.07;9.63;;;;;;;;;;5040037;28;20203;-73
2023/12/02 07:44:32;;;;;;;143.47;13.10;;;;;;;;;;5044651;28;20241;-73
2023/12/02 07:47:00;;;;;;;57.00;11.37;;;;;;;;;;5055143;28;20233;-71
2023/12/02 07:49:27;;;;;;;112.23;12.57;;;;;;;;;;5061539;28;20326;-71
2023/12/02 07:51:54;;;;;;;57.67;11.60;;;;;;;;;;5054395;28;20690;-72
2023/12/02 07:54:22;;;;;;;48.80;10.30;;;;;;;;;;5051002;28;20227;-74
2023/12/02 07:56:49;;;;;;;78.50;11.30;;;;;;;;;;5053391;28;20678;-73
2023/12/02 07:59:17;;;;;;;150.07;12.63;;;;;;;;;;5054100;28;20203;-73
2023/12/02 08:01:44;;;;;;;191.33;13.77;;;;;;;;;;5059556;28;20825;-73
2023/12/02 08:04:11;;;;;;;77.43;11.33;;;;;;;;;;5052659;28;20211;-73
2023/12/02 08:06:39;;;;;;;111.13;12.33;;;;;;;;;;5044028;28;20298;-72
2023/12/02 08:09:06;;;;;;;54.10;10.40;;;;;;;;;;5053818;28;20205;-72
2023/12/02 08:11:33;;;;;;;101.97;12.33;;;;;;;;;;5051059;28;20209;-74
2023/12/02 08:14:01;;;;;;;61.43;11.67;;;;;;;;;;5056142;28;20227;-74
2023/12/02 08:16:28;;;;;;;15.10;9.90;;;;;;;;;;5051193;28;20207;-72
2023/12/02 08:18:55;;;;;;;24.53;11.23;;;;;;;;;;5053809;28;20254;-71
2023/12/02 08:21:25;;;;;;;15.57;10.00;;;;;;;;;;5054866;28;20202;-71
2023/12/02 08:23:53;;;;;;;14.20;8.83;;;;;;;;;;5057964;28;20693;-73
2023/12/02 08:26:20;;;;;;;11.80;7.40;;;;;;;;;;5053201;28;20212;-71
2023/12/02 08:28:48;;;;;;;11.10;7.57;;;;;;;;;;5049687;28;20227;-72
2023/12/02 08:31:16;;;;;;;10.23;7.03;;;;;;;;;;5054483;28;20246;-73
2023/12/02 08:33:43;;;;;;;8.87;6.80;;;;;;;;;;5045547;28;20603;-71
2023/12/02 08:36:13;;;;;;;8.93;6.67;;;;;;;;;;5049449;28;20200;-73
2023/12/02 08:38:42;;;;;;;10.33;9.23;;;;;;;;;;5049805;28;20285;-73
2023/12/02 08:41:09;;;;;;;5.67;5.10;;;;;;;;;;5048036;28;20204;-72
2023/12/02 08:43:37;;;;;;;6.87;5.70;;;;;;;;;;5030125;28;21758;-74
2023/12/02 08:46:04;;;;;;;9.57;5.40;;;;;;;;;;5042957;28;20211;-72
2023/12/02 08:48:31;;;;;;;7.47;5.87;;;;;;;;;;5053336;28;20232;-74
2023/12/02 08:50:59;;;;;;;6.27;5.63;;;;;;;;;;5051498;28;20341;-76
2023/12/02 08:53:26;;;;;;;7.30;6.53;;;;;;;;;;5051705;28;20227;-74
2023/12/02 08:55:54;;;;;;;6.57;5.63;;;;;;;;;;5050345;28;20603;-72
2023/12/02 08:58:21;;;;;;;6.40;5.63;;;;;;;;;;5048438;28;20866;-71
2023/12/02 09:00:49;;;;;;;7.80;6.23;;;;;;;;;;5048236;28;20212;-72
2023/12/02 09:03:18;;;;;;;7.83;6.80;;;;;;;;;;5047191;28;20210;-73
2023/12/02 09:05:45;;;;;;;11.50;7.80;;;;;;;;;;5044026;28;20225;-72
2023/12/02 09:08:12;;;;;;;9.63;8.07;;;;;;;;;;5048370;28;20614;-72
2023/12/02 09:10:39;;;;;;;10.37;7.97;;;;;;;;;;5051967;28;20195;-72
2023/12/02 09:13:33;;;;;;;11.93;9.17;;;;;;;;;;5044751;28;20210;-73
2023/12/02 09:16:00;;;;;;;12.63;9.63;;;;;;;;;;5016123;28;20199;-72
2023/12/02 09:18:30;;;;;;;12.77;9.00;;;;;;;;;;5042238;28;20271;-74
2023/12/02 09:20:57;;;;;;;12.67;9.67;;;;;;;;;;5007294;28;23319;-72
2023/12/02 09:23:25;;;;;;;11.93;9.50;;;;;;;;;;5045978;28;20301;-74
2023/12/02 09:25:53;;;;;;;13.63;10.20;;;;;;;;;;5038459;28;20207;-72
2023/12/02 09:28:29;;;;;;;15.43;11.03;;;;;;;;;;5053649;28;20747;-73
2023/12/02 09:31:00;;;;;;;12.60;9.30;;;;;;;;;;5043589;28;20228;-73
2023/12/02 09:33:36;;;;;;;14.60;10.67;;;;;;;;;;5041957;28;20221;-73
2023/12/02 09:36:04;;;;;;;14.17;10.33;;;;;;;;;;5040527;28;20593;-72
2023/12/02 09:38:33;;;;;;;14.70;10.10;;;;;;;;;;5040115;28;20226;-74
2023/12/02 09:41:00;;;;;;;13.90;10.33;;;;;;;;;;5029885;28;20340;-74
2023/12/02 09:43:32;;;;;;;15.40;11.20;;;;;;;;;;5046229;28;21909;-72
2023/12/02 09:46:15;;;;;;;13.97;11.47;;;;;;;;;;5052670;28;20607;-73
2023/12/02 09:48:55;;;;;;;12.87;9.43;;;;;;;;;;5041654;28;20639;-73
2023/12/02 09:51:42;;;;;;;12.97;8.27;;;;;;;;;;5044692;28;20206;-75
2023/12/02 09:54:12;;;;;;;15.63;9.80;;;;;;;;;;5046809;28;20232;-73
2023/12/02 09:56:43;;;;;;;14.97;10.43;;;;;;;;;;5048545;28;20623;-72
2023/12/02 09:59:43;;;;;;;15.27;11.50;;;;;;;;;;5036800;28;20224;-74
2023/12/02 10:02:37;;;;;;;14.87;10.00;;;;;;;;;;5010654;28;20204;-74
2023/12/02 10:05:11;;;;;;;13.90;9.57;;;;;;;;;;5015600;28;20205;-75
2023/12/02 10:07:38;;;;;;;12.60;8.20;;;;;;;;;;5052582;28;20347;-74
2023/12/02 10:10:10;;;;;;;10.77;8.27;;;;;;;;;;5044096;28;20214;-72
2023/12/02 10:12:37;;;;;;;13.37;9.13;;;;;;;;;;5039329;28;21994;-72
2023/12/02 10:15:05;;;;;;;13.03;9.03;;;;;;;;;;5025691;28;20640;-71
2023/12/02 10:17:38;;;;;;;11.17;8.13;;;;;;;;;;5047895;28;20264;-71
2023/12/02 10:20:09;;;;;;;13.43;9.23;;;;;;;;;;5023403;28;20201;-71
2023/12/02 10:22:43;;;;;;;14.60;8.80;;;;;;;;;;5044169;28;20324;-73
2023/12/02 10:25:14;;;;;;;12.87;9.47;;;;;;;;;;5058801;28;20209;-72
2023/12/02 10:27:41;;;;;;;13.13;9.00;;;;;;;;;;5069121;28;20226;-72
2023/12/02 10:30:12;;;;;;;13.33;9.30;;;;;;;;;;5060454;28;20563;-72
2023/12/02 10:32:58;;;;;;;10.73;8.00;;;;;;;;;;5067418;28;20594;-72
2023/12/02 10:35:29;;;;;;;13.80;9.27;;;;;;;;;;5056432;28;20252;-72
2023/12/02 10:38:13;;;;;;;11.77;8.27;;;;;;;;;;5053371;28;20225;-73
2023/12/02 10:40:41;;;;;;;14.93;9.53;;;;;;;;;;5039276;28;20275;-72
2023/12/02 10:43:10;;;;;;;13.40;9.40;;;;;;;;;;5043821;28;20252;-71
2023/12/02 10:45:40;;;;;;;13.63;9.10;;;;;;;;;;5039813;28;20272;-72
2023/12/02 10:48:11;;;;;;;13.83;9.53;;;;;;;;;;5051020;28;20305;-73
2023/12/02 10:50:39;;;;;;;13.67;9.43;;;;;;;;;;5040220;28;20214;-71
2023/12/02 10:53:06;;;;;;;12.13;8.40;;;;;;;;;;5047933;28;20217;-72
2023/12/02 10:55:37;;;;;;;15.70;10.27;;;;;;;;;;5061997;28;20221;-71
2023/12/02 10:58:05;;;;;;;11.17;8.87;;;;;;;;;;5053634;28;20223;-74
2023/12/02 11:00:36;;;;;;;12.23;8.63;;;;;;;;;;5062052;28;20211;-72
2023/12/02 11:03:10;;;;;;;9.87;7.83;;;;;;;;;;5056405;28;20690;-76
2023/12/02 11:05:44;;;;;;;10.77;9.17;;;;;;;;;;5068190;28;20215;-74
2023/12/02 11:08:27;;;;;;;10.97;8.03;;;;;;;;;;5060692;28;20328;-73
2023/12/02 11:10:59;;;;;;;12.57;8.87;;;;;;;;;;5047645;28;20204;-73
2023/12/02 11:13:28;;;;;;;10.43;8.03;;;;;;;;;;5051712;28;20654;-71
2023/12/02 11:16:15;;;;;;;10.63;8.33;;;;;;;;;;5042063;28;20231;-72
2023/12/02 11:18:49;;;;;;;11.97;8.93;;;;;;;;;;5050759;28;20221;-73
2023/12/02 11:21:25;;;;;;;11.17;8.70;;;;;;;;;;5025935;28;20208;-74
2023/12/02 11:24:10;;;;;;;12.40;9.50;;;;;;;;;;5050266;28;20293;-73
2023/12/02 11:26:37;;;;;;;11.97;8.90;;;;;;;;;;5019883;28;20208;-73
2023/12/02 11:29:37;;;;;;;9.40;8.03;;;;;;;;;;5026367;28;20734;-72
2023/12/02 11:32:27;;;;;;;11.30;9.23;;;;;;;;;;5048423;28;22212;-72
2023/12/02 11:34:55;;;;;;;12.20;9.00;;;;;;;;;;5039810;28;24493;-72
2023/12/02 11:37:28;;;;;;;11.50;8.87;;;;;;;;;;5040589;28;20315;-72
2023/12/02 11:39:58;;;;;;;11.70;8.97;;;;;;;;;;5044872;28;20207;-73
2023/12/02 11:42:27;;;;;;;9.20;8.07;;;;;;;;;;5045713;28;20204;-72
2023/12/02 11:44:55;;;;;;;11.37;8.53;;;;;;;;;;5037725;28;20214;-72
2023/12/02 11:47:28;;;;;;;10.80;8.40;;;;;;;;;;5024125;28;20611;-72
2023/12/02 11:49:58;;;;;;;13.73;9.53;;;;;;;;;;5029458;28;20676;-72
2023/12/02 11:52:31;;;;;;;10.83;8.97;;;;;;;;;;5039588;28;20214;-73
2023/12/02 11:55:11;;;;;;;12.67;9.73;;;;;;;;;;5028238;28;20231;-73
2023/12/02 11:57:46;;;;;;;11.67;9.03;;;;;;;;;;5047736;28;20234;-72
2023/12/02 12:00:24;;;;;;;13.83;9.57;;;;;;;;;;5036980;28;20199;-73
2023/12/02 12:03:00;;;;;;;12.13;9.53;;;;;;;;;;5039556;28;20697;-73
2023/12/02 12:05:46;;;;;;;13.10;10.10;;;;;;;;;;5042476;28;20213;-72
2023/12/02 12:08:20;;;;;;;14.33;10.30;;;;;;;;;;5047202;28;20720;-73
2023/12/02 12:10:50;;;;;;;15.33;10.53;;;;;;;;;;5038181;28;20231;-72
2023/12/02 12:13:19;;;;;;;13.10;10.50;;;;;;;;;;5044336;28;20214;-74
2023/12/02 12:15:46;;;;;;;15.07;10.40;;;;;;;;;;5038710;28;20230;-72
2023/12/02 12:18:17;;;;;;;16.67;11.90;;;;;;;;;;5051851;28;20221;-74
2023/12/02 12:20:44;;;;;;;14.77;10.53;;;;;;;;;;5051663;28;20200;-71
2023/12/02 12:23:12;;;;;;;15.20;11.37;;;;;;;;;;5045808;28;20300;-73
2023/12/02 12:25:39;;;;;;;15.27;10.67;;;;;;;;;;5019358;28;23077;-73
2023/12/02 12:28:06;;;;;;;16.77;11.33;;;;;;;;;;5025752;28;20230;-71
2023/12/02 12:30:43;;;;;;;19.83;12.60;;;;;;;;;;5045664;28;20671;-73
2023/12/02 12:33:11;;;;;;;18.13;12.67;;;;;;;;;;5034388;28;20337;-71
2023/12/02 12:35:39;;;;;;;19.13;11.93;;;;;;;;;;5040242;28;20246;-74
2023/12/02 12:38:07;;;;;;;17.43;12.70;;;;;;;;;;5052445;28;20228;-73
2023/12/02 12:40:35;;;;;;;17.80;12.10;;;;;;;;;;5051155;28;20202;-73
2023/12/02 12:43:02;;;;;;;23.33;15.23;;;;;;;;;;5029927;28;20215;-72
2023/12/02 12:45:33;;;;;;;20.70;14.60;;;;;;;;;;5030108;28;20219;-72
2023/12/02 12:48:01;;;;;;;18.50;13.47;;;;;;;;;;5054365;28;20233;-71
2023/12/02 12:50:34;;;;;;;21.53;14.00;;;;;;;;;;5043282;28;20210;-73
2023/12/02 12:53:12;;;;;;;16.87;12.07;;;;;;;;;;5043687;28;20213;-71
2023/12/02 12:55:46;;;;;;;21.43;12.30;;;;;;;;;;5048846;28;20307;-73
2023/12/02 12:58:17;;;;;;;15.70;11.60;;;;;;;;;;5051276;28;20221;-72
2023/12/02 13:00:50;;;;;;;17.43;12.03;;;;;;;;;;5031020;28;20338;-74
2023/12/02 13:03:17;;;;;;;33.30;11.60;;;;;;;;;;5029010;28;20644;-75
2023/12/02 13:05:49;;;;;;;18.47;12.37;;;;;;;;;;5040502;28;20213;-73
2023/12/02 13:08:17;;;;;;;22.70;12.53;;;;;;;;;;5042068;28;20230;-71
2023/12/02 13:10:47;;;;;;;19.70;11.47;;;;;;;;;;5042282;28;20202;-74
2023/12/02 13:13:15;;;;;;;21.60;13.40;;;;;;;;;;5044181;28;20708;-73
2023/12/02 13:15:43;;;;;;;20.17;11.93;;;;;;;;;;5041078;28;20258;-73
2023/12/02 13:18:11;;;;;;;18.23;12.07;;;;;;;;;;5040452;28;20220;-73
2023/12/02 13:20:42;;;;;;;18.47;12.83;;;;;;;;;;5034780;28;20306;-72
2023/12/02 13:23:12;;;;;;;18.87;12.43;;;;;;;;;;5036916;28;22159;-73
2023/12/02 13:25:39;;;;;;;25.77;12.57;;;;;;;;;;5034953;28;20210;-73
2023/12/02 13:28:12;;;;;;;18.47;12.13;;;;;;;;;;5034733;28;20232;-70
2023/12/02 13:30:40;;;;;;;21.63;11.70;;;;;;;;;;5048881;28;20248;-71
2023/12/02 13:33:28;;;;;;;20.40;12.10;;;;;;;;;;5046828;28;20201;-71
2023/12/02 13:36:15;;;;;;;19.50;12.13;;;;;;;;;;5025017;28;21410;-71
2023/12/02 13:38:49;;;;;;;25.67;12.73;;;;;;;;;;5043540;28;20221;-71
2023/12/02 13:41:21;;;;;;;28.37;11.93;;;;;;;;;;5047028;28;20194;-72
2023/12/02 13:43:51;;;;;;;37.27;11.30;;;;;;;;;;5042626;28;20573;-71
2023/12/02 13:46:22;;;;;;;44.53;12.50;;;;;;;;;;5055158;28;20234;-73
2023/12/02 13:48:49;;;;;;;37.30;12.47;;;;;;;;;;5048033;28;20708;-73
2023/12/02 13:51:28;;;;;;;24.87;11.77;;;;;;;;;;5021698;28;20347;-71
2023/12/02 13:54:14;;;;;;;21.87;11.03;;;;;;;;;;5014461;28;20364;-73
2023/12/02 13:56:41;;;;;;;30.47;11.50;;;;;;;;;;5047384;28;20197;-72
2023/12/02 13:59:32;;;;;;;36.00;12.40;;;;;;;;;;5039512;28;20207;-72
2023/12/02 14:02:08;;;;;;;32.50;12.00;;;;;;;;;;5029820;28;20256;-71
2023/12/02 14:04:45;;;;;;;27.90;12.47;;;;;;;;;;5048396;28;20783;-72
2023/12/02 14:07:25;;;;;;;37.33;11.07;;;;;;;;;;5053841;28;20316;-72
2023/12/02 14:09:54;;;;;;;33.50;12.57;;;;;;;;;;5049767;28;20204;-71
2023/12/02 14:12:29;;;;;;;17.87;11.27;;;;;;;;;;5042972;28;20217;-71
2023/12/02 14:18:37;;;;;;;18.67;11.73;;;;;;;;;;5012040;28;20200;-72
2023/12/02 14:21:24;;;;;;;20.63;11.87;;;;;;;;;;5018060;28;20202;-72
2023/12/02 14:23:55;;;;;;;19.27;11.60;;;;;;;;;;5022628;28;20212;-72
2023/12/02 14:26:25;;;;;;;18.23;11.83;;;;;;;;;;5028709;28;23103;-72
2023/12/02 14:29:11;;;;;;;13.83;9.80;;;;;;;;;;5008951;28;20233;-72
2023/12/02 14:31:41;;;;;;;16.43;10.73;;;;;;;;;;5024738;28;20393;-71
2023/12/02 14:34:27;;;;;;;15.40;10.20;;;;;;;;;;5028141;28;20207;-72
2023/12/02 14:37:10;;;;;;;14.57;10.20;;;;;;;;;;5020362;28;20207;-71
2023/12/02 14:39:52;;;;;;;17.13;10.17;;;;;;;;;;5031991;28;20215;-72
2023/12/02 14:42:34;;;;;;;15.70;9.37;;;;;;;;;;5041263;28;20221;-72
2023/12/02 14:45:01;;;;;;;12.23;8.80;;;;;;;;;;5018508;28;21145;-73
2023/12/02 14:47:29;;;;;;;12.23;9.10;;;;;;;;;;5008400;28;20316;-72
2023/12/02 14:49:56;;;;;;;13.77;9.87;;;;;;;;;;5016333;28;20206;-73